Wetterdaten: Woche 18.02.13 - 24.02.13 (KW8)
Datum Zeit Temperatur Luftfeuchte Luftdruck Niederschlag Windrichtung Sonnenschein Solar Wind
18.02.2013 00:00 -0,2 C 91 % 1019,4 hPa 0,0 l/m O-NO 0,00 h 0 W/m 5,7 km/h (1 Bft)
18.02.2013 01:00 -0,2 C 92 % 1019,1 hPa 0,0 l/m O-NO 0,00 h 0 W/m 7,6 km/h (2 Bft)
18.02.2013 02:00 -0,2 C 92 % 1018,8 hPa 0,0 l/m O-NO 0,00 h 0 W/m 6,9 km/h (2 Bft)
18.02.2013 03:00 -0,2 C 92 % 1018,3 hPa 0,0 l/m O-NO 0,00 h 0 W/m 6,8 km/h (2 Bft)
18.02.2013 04:00 -0,4 C 92 % 1018,3 hPa 0,0 l/m O-NO 0,00 h 0 W/m 7,4 km/h (2 Bft)
18.02.2013 05:00 -0,4 C 92 % 1018,3 hPa 0,0 l/m O-NO 0,00 h 0 W/m 9,4 km/h (2 Bft)
18.02.2013 06:00 -0,5 C 91 % 1018,3 hPa 0,0 l/m O-NO 0,00 h 0 W/m 7,6 km/h (2 Bft)
18.02.2013 07:00 -0,4 C 89 % 1018,5 hPa 0,0 l/m O-NO 0,00 h 7 W/m 7,1 km/h (2 Bft)
18.02.2013 08:00 -0,3 C 86 % 1018,9 hPa 0,0 l/m O 0,00 h 28 W/m 8,4 km/h (2 Bft)
18.02.2013 09:00 -0,1 C 85 % 1019,2 hPa 0,0 l/m O-NO 0,00 h 72 W/m 12,2 km/h (2 Bft)
18.02.2013 10:00 -0,5 C 88 % 1019,4 hPa 0,0 l/m O-NO 0,00 h 132 W/m 13,8 km/h (3 Bft)
18.02.2013 11:00 0,2 C 86 % 1019,5 hPa 0,0 l/m O-NO 0,00 h 194 W/m 10,7 km/h (2 Bft)
18.02.2013 12:00 0,7 C 81 % 1019,4 hPa 0,0 l/m O-NO 0,00 h 161 W/m 13,6 km/h (3 Bft)
18.02.2013 13:00 0,9 C 79 % 1019,3 hPa 0,0 l/m O-NO 0,50 h 346 W/m 10,5 km/h (2 Bft)
18.02.2013 14:00 1,4 C 77 % 1018,9 hPa 0,0 l/m O-NO 1,00 h 412 W/m 11,2 km/h (2 Bft)
18.02.2013 15:00 1,6 C 75 % 1018,9 hPa 0,0 l/m SO 1,00 h 317 W/m 12,4 km/h (3 Bft)
18.02.2013 16:00 1,1 C 77 % 1019,0 hPa 0,0 l/m SO 0,75 h 119 W/m 7,6 km/h (2 Bft)
18.02.2013 17:00 0,5 C 78 % 1018,9 hPa 0,0 l/m SO 0,00 h 23 W/m 2,3 km/h (1 Bft)
18.02.2013 18:00 -0,7 C 80 % 1019,2 hPa 0,0 l/m N 0,00 h 0 W/m 0,0 km/h (0 Bft)
18.02.2013 19:00 -2,1 C 84 % 1019,4 hPa 0,0 l/m N 0,00 h 0 W/m 0,0 km/h (0 Bft)
18.02.2013 20:00 -3,0 C 86 % 1019,2 hPa 0,0 l/m N 0,00 h 0 W/m 0,0 km/h (0 Bft)
18.02.2013 21:00 -3,7 C 87 % 1019,3 hPa 0,0 l/m N 0,00 h 0 W/m 0,0 km/h (0 Bft)
18.02.2013 22:00 -4,4 C 88 % 1019,4 hPa 0,0 l/m N 0,00 h 0 W/m 0,0 km/h (0 Bft)
18.02.2013 23:00 -5,0 C 89 % 1019,2 hPa 0,0 l/m N 0,00 h 0 W/m 0,0 km/h (0 Bft)
19.02.2013 00:00 -5,5 C 90 % 1019,1 hPa 0,0 l/m N 0,00 h 0 W/m 0,0 km/h (0 Bft)
19.02.2013 01:00 -6,2 C 91 % 1018,8 hPa 0,0 l/m N 0,00 h 0 W/m 0,0 km/h (0 Bft)
19.02.2013 02:00 -6,7 C 91 % 1018,9 hPa 0,0 l/m N 0,00 h 0 W/m 0,0 km/h (0 Bft)
19.02.2013 03:00 -7,2 C 92 % 1018,8 hPa 0,0 l/m N 0,00 h 0 W/m 0,1 km/h (0 Bft)
19.02.2013 04:00 -7,7 C 92 % 1018,7 hPa 0,0 l/m N 0,00 h 0 W/m 0,0 km/h (0 Bft)
19.02.2013 05:00 -8,0 C 93 % 1018,6 hPa 0,0 l/m N 0,00 h 0 W/m 0,4 km/h (0 Bft)
19.02.2013 06:00 -7,0 C 95 % 1018,4 hPa 0,0 l/m S-SO 0,00 h 0 W/m 4,3 km/h (1 Bft)
19.02.2013 07:00 -5,1 C 96 % 1018,3 hPa 0,0 l/m S-SW 0,00 h 13 W/m 8,2 km/h (2 Bft)
19.02.2013 08:00 -4,6 C 96 % 1018,6 hPa 0,0 l/m S-SW 0,00 h 62 W/m 6,1 km/h (2 Bft)
19.02.2013 09:00 -3,7 C 96 % 1018,3 hPa 0,0 l/m S-SW 0,25 h 156 W/m 6,7 km/h (2 Bft)
19.02.2013 10:00 -2,4 C 96 % 1018,1 hPa 0,0 l/m S-SW 1,00 h 296 W/m 10,2 km/h (2 Bft)
19.02.2013 11:00 -0,6 C 93 % 1017,7 hPa 0,0 l/m S-SW 1,00 h 453 W/m 13,3 km/h (3 Bft)
19.02.2013 12:00 1,1 C 87 % 1017,1 hPa 0,0 l/m S-SW 0,25 h 264 W/m 9,7 km/h (2 Bft)
19.02.2013 13:00 2,5 C 75 % 1016,4 hPa 0,0 l/m S-SW 0,00 h 172 W/m 12,0 km/h (2 Bft)
19.02.2013 14:00 2,7 C 70 % 1015,8 hPa 0,0 l/m SW 0,00 h 119 W/m 14,4 km/h (3 Bft)
19.02.2013 15:00 2,7 C 71 % 1015,5 hPa 0,0 l/m SW 0,00 h 68 W/m 8,9 km/h (2 Bft)
19.02.2013 16:00 2,4 C 74 % 1015,4 hPa 0,0 l/m SW 0,00 h 35 W/m 8,2 km/h (2 Bft)
19.02.2013 17:00 2,3 C 75 % 1015,5 hPa 0,0 l/m W-SW 0,00 h 13 W/m 11,8 km/h (2 Bft)
19.02.2013 18:00 1,4 C 85 % 1015,8 hPa 0,0 l/m NW 0,00 h 0 W/m 6,2 km/h (2 Bft)
19.02.2013 19:00 0,6 C 92 % 1016,0 hPa 0,8 l/m W-NW 0,00 h 0 W/m 9,4 km/h (2 Bft)
19.02.2013 20:00 0,3 C 94 % 1016,0 hPa 0,2 l/m W-NW 0,00 h 0 W/m 5,1 km/h (1 Bft)
19.02.2013 21:00 0,3 C 94 % 1016,1 hPa 0,6 l/m N 0,00 h 0 W/m 0,3 km/h (0 Bft)
19.02.2013 22:00 0,3 C 95 % 1016,2 hPa 0,2 l/m N 0,00 h 0 W/m 0,0 km/h (0 Bft)
19.02.2013 23:00 0,1 C 95 % 1016,2 hPa 0,0 l/m N 0,00 h 0 W/m 0,0 km/h (0 Bft)
20.02.2013 00:00 -0,2 C 95 % 1016,2 hPa 0,0 l/m N 0,00 h 0 W/m 0,0 km/h (0 Bft)
20.02.2013 01:00 -0,3 C 95 % 1016,1 hPa 0,2 l/m N 0,00 h 0 W/m 0,0 km/h (0 Bft)
20.02.2013 02:00 -0,4 C 95 % 1016,1 hPa 0,0 l/m N 0,00 h 0 W/m 0,0 km/h (0 Bft)
20.02.2013 03:00 -0,3 C 96 % 1016,1 hPa 0,0 l/m W-NW 0,00 h 0 W/m 1,9 km/h (1 Bft)
20.02.2013 04:00 -0,3 C 96 % 1016,2 hPa 0,0 l/m W-NW 0,00 h 0 W/m 3,7 km/h (1 Bft)
20.02.2013 05:00 -0,5 C 96 % 1016,5 hPa 0,0 l/m W-NW 0,00 h 0 W/m 4,7 km/h (1 Bft)
20.02.2013 06:00 -0,6 C 96 % 1016,5 hPa 0,0 l/m NW 0,00 h 0 W/m 4,9 km/h (1 Bft)
20.02.2013 07:00 -0,8 C 96 % 1016,7 hPa 0,0 l/m NO 0,00 h 6 W/m 8,4 km/h (2 Bft)
20.02.2013 08:00 -1,6 C 95 % 1017,4 hPa 0,0 l/m O-NO 0,00 h 14 W/m 13,6 km/h (3 Bft)
20.02.2013 09:00 -2,1 C 93 % 1018,2 hPa 0,0 l/m O-NO 0,00 h 31 W/m 7,8 km/h (2 Bft)
20.02.2013 10:00 -1,7 C 91 % 1018,3 hPa 0,0 l/m O-NO 0,00 h 80 W/m 10,5 km/h (2 Bft)
20.02.2013 11:00 -1,1 C 87 % 1018,4 hPa 0,0 l/m O-NO 0,00 h 151 W/m 11,1 km/h (2 Bft)
20.02.2013 12:00 -0,7 C 82 % 1018,3 hPa 0,0 l/m O-NO 0,00 h 182 W/m 14,4 km/h (3 Bft)
20.02.2013 13:00 -0,7 C 80 % 1018,1 hPa 0,0 l/m O-NO 0,00 h 144 W/m 12,8 km/h (3 Bft)
20.02.2013 14:00 -0,5 C 79 % 1018,0 hPa 0,0 l/m O-NO 0,17 h 166 W/m 11,8 km/h (2 Bft)
20.02.2013 15:00 -0,5 C 75 % 1017,9 hPa 0,0 l/m O-NO 0,00 h 124 W/m 14,8 km/h (3 Bft)
20.02.2013 16:00 -0,7 C 76 % 1018,0 hPa 0,0 l/m O-NO 0,08 h 61 W/m 10,5 km/h (2 Bft)
20.02.2013 17:00 -1,4 C 78 % 1018,3 hPa 0,0 l/m O-NO 0,00 h 15 W/m 10,2 km/h (2 Bft)
20.02.2013 18:00 -2,2 C 81 % 1018,7 hPa 0,0 l/m NO 0,00 h 0 W/m 6,5 km/h (2 Bft)
20.02.2013 19:00 -2,5 C 84 % 1018,8 hPa 0,0 l/m NO 0,00 h 0 W/m 7,8 km/h (2 Bft)
20.02.2013 20:00 -3,0 C 84 % 1018,5 hPa 0,0 l/m O-NO 0,00 h 0 W/m 7,9 km/h (2 Bft)
20.02.2013 21:00 -3,6 C 86 % 1018,5 hPa 0,0 l/m O-NO 0,00 h 0 W/m 8,0 km/h (2 Bft)
20.02.2013 22:00 -3,7 C 88 % 1018,4 hPa 0,0 l/m O-NO 0,00 h 0 W/m 8,0 km/h (2 Bft)
20.02.2013 23:00 -3,8 C 89 % 1017,9 hPa 0,0 l/m O-NO 0,00 h 0 W/m 11,7 km/h (2 Bft)
21.02.2013 00:00 -3,8 C 90 % 1017,7 hPa 0,0 l/m O-NO 0,00 h 0 W/m 13,2 km/h (3 Bft)
21.02.2013 01:00 -4,3 C 89 % 1017,8 hPa 0,0 l/m O-NO 0,00 h 0 W/m 13,4 km/h (3 Bft)
21.02.2013 02:00 -4,7 C 89 % 1017,6 hPa 0,0 l/m O-NO 0,00 h 0 W/m 13,0 km/h (3 Bft)
21.02.2013 03:00 -5,2 C 90 % 1017,1 hPa 0,0 l/m NO 0,00 h 0 W/m 10,3 km/h (2 Bft)
21.02.2013 04:00 -5,2 C 90 % 1016,7 hPa 0,0 l/m O-NO 0,00 h 0 W/m 15,6 km/h (3 Bft)
21.02.2013 05:00 -5,6 C 89 % 1016,5 hPa 0,0 l/m O-NO 0,00 h 0 W/m 14,0 km/h (3 Bft)
21.02.2013 06:00 -5,9 C 89 % 1016,5 hPa 0,0 l/m O-NO 0,00 h 0 W/m 14,2 km/h (3 Bft)
21.02.2013 07:00 -6,0 C 90 % 1016,5 hPa 0,0 l/m NO 0,00 h 13 W/m 17,7 km/h (3 Bft)
21.02.2013 08:00 -5,8 C 90 % 1016,8 hPa 0,0 l/m O-NO 0,00 h 44 W/m 18,2 km/h (3 Bft)
21.02.2013 09:00 -5,2 C 89 % 1016,6 hPa 0,0 l/m NO 0,00 h 126 W/m 19,2 km/h (3 Bft)
21.02.2013 10:00 -4,4 C 87 % 1016,3 hPa 0,0 l/m O-NO 0,17 h 214 W/m 19,8 km/h (4 Bft)
21.02.2013 11:00 -3,4 C 82 % 1016,4 hPa 0,0 l/m O-NO 0,75 h 484 W/m 20,2 km/h (4 Bft)
21.02.2013 12:00 -2,5 C 76 % 1016,0 hPa 0,0 l/m NO 0,92 h 532 W/m 20,6 km/h (4 Bft)
21.02.2013 13:00 -2,0 C 71 % 1015,1 hPa 0,0 l/m NO 0,33 h 339 W/m 21,8 km/h (4 Bft)
21.02.2013 14:00 -2,4 C 70 % 1014,6 hPa 0,0 l/m O-NO 0,00 h 147 W/m 19,3 km/h (3 Bft)
21.02.2013 15:00 -2,4 C 72 % 1014,6 hPa 0,0 l/m O-NO 0,08 h 128 W/m 18,1 km/h (3 Bft)
21.02.2013 16:00 -2,8 C 76 % 1014,5 hPa 0,0 l/m O-NO 0,00 h 52 W/m 17,6 km/h (3 Bft)
21.02.2013 17:00 -3,3 C 78 % 1014,4 hPa 0,0 l/m NO 0,00 h 18 W/m 19,2 km/h (3 Bft)
21.02.2013 18:00 -3,9 C 83 % 1014,6 hPa 0,0 l/m O-NO 0,00 h 0 W/m 18,4 km/h (3 Bft)
21.02.2013 19:00 -4,2 C 84 % 1014,6 hPa 0,0 l/m O-NO 0,00 h 0 W/m 18,2 km/h (3 Bft)
21.02.2013 20:00 -4,4 C 83 % 1014,0 hPa 0,0 l/m NO 0,00 h 0 W/m 18,2 km/h (3 Bft)
21.02.2013 21:00 -4,6 C 83 % 1013,7 hPa 0,0 l/m O-NO 0,00 h 0 W/m 15,0 km/h (3 Bft)
21.02.2013 22:00 -4,8 C 82 % 1013,3 hPa 0,0 l/m O-NO 0,00 h 0 W/m 15,0 km/h (3 Bft)
21.02.2013 23:00 -5,1 C 82 % 1012,7 hPa 0,0 l/m O-NO 0,00 h 0 W/m 16,2 km/h (3 Bft)
22.02.2013 00:00 -5,2 C 84 % 1012,5 hPa 0,0 l/m O-NO 0,00 h 0 W/m 15,6 km/h (3 Bft)
22.02.2013 01:00 -5,4 C 86 % 1012,0 hPa 0,0 l/m NO 0,00 h 0 W/m 16,6 km/h (3 Bft)
22.02.2013 02:00 -5,6 C 86 % 1011,5 hPa 0,0 l/m O-NO 0,00 h 0 W/m 18,4 km/h (3 Bft)
22.02.2013 03:00 -5,8 C 87 % 1010,8 hPa 0,0 l/m O-NO 0,00 h 0 W/m 18,8 km/h (3 Bft)
22.02.2013 04:00 -5,9 C 87 % 1010,2 hPa 0,0 l/m O-NO 0,00 h 0 W/m 17,8 km/h (3 Bft)
22.02.2013 05:00 -6,2 C 88 % 1010,0 hPa 0,0 l/m O-NO 0,00 h 0 W/m 17,7 km/h (3 Bft)
22.02.2013 06:00 -6,6 C 87 % 1009,8 hPa 0,0 l/m O-NO 0,00 h 0 W/m 18,1 km/h (3 Bft)
22.02.2013 07:00 -6,9 C 88 % 1009,7 hPa 0,0 l/m O-NO 0,00 h 15 W/m 18,8 km/h (3 Bft)
22.02.2013 08:00 -6,8 C 89 % 1009,8 hPa 0,0 l/m NO 0,00 h 64 W/m 17,2 km/h (3 Bft)
22.02.2013 09:00 -6,5 C 87 % 1009,5 hPa 0,0 l/m NO 0,00 h 81 W/m 19,0 km/h (3 Bft)
22.02.2013 10:00 -5,7 C 83 % 1009,3 hPa 0,0 l/m O-NO 0,33 h 241 W/m 19,8 km/h (4 Bft)
22.02.2013 11:00 -5,1 C 79 % 1009,1 hPa 0,0 l/m O-NO 0,42 h 311 W/m 27,4 km/h (4 Bft)
22.02.2013 12:00 -5,1 C 82 % 1008,7 hPa 0,0 l/m NO 0,00 h 174 W/m 21,3 km/h (4 Bft)
22.02.2013 13:00 -5,1 C 81 % 1008,3 hPa 0,0 l/m O-NO 0,00 h 133 W/m 20,6 km/h (4 Bft)
22.02.2013 14:00 -5,1 C 81 % 1008,1 hPa 0,0 l/m O-NO 0,00 h 141 W/m 21,7 km/h (4 Bft)
22.02.2013 15:00 -5,1 C 83 % 1008,2 hPa 0,0 l/m O-NO 0,00 h 118 W/m 17,2 km/h (3 Bft)
22.02.2013 16:00 -5,2 C 84 % 1008,2 hPa 0,0 l/m O-NO 0,00 h 51 W/m 15,7 km/h (3 Bft)
22.02.2013 17:00 -5,5 C 87 % 1008,2 hPa 0,0 l/m O-NO 0,00 h 19 W/m 14,0 km/h (3 Bft)
22.02.2013 18:00 -5,9 C 87 % 1008,7 hPa 0,0 l/m O-NO 0,00 h 0 W/m 14,0 km/h (3 Bft)
22.02.2013 19:00 -6,1 C 90 % 1008,9 hPa 0,0 l/m NO 0,00 h 0 W/m 11,2 km/h (2 Bft)
22.02.2013 20:00 -6,1 C 90 % 1008,9 hPa 0,0 l/m NO 0,00 h 0 W/m 13,2 km/h (3 Bft)
22.02.2013 21:00 -6,2 C 90 % 1008,7 hPa 0,0 l/m NO 0,00 h 0 W/m 9,9 km/h (2 Bft)
22.02.2013 22:00 -6,3 C 90 % 1008,3 hPa 0,0 l/m NO 0,00 h 0 W/m 11,2 km/h (2 Bft)
22.02.2013 23:00 -6,4 C 90 % 1008,1 hPa 0,0 l/m NO 0,00 h 0 W/m 13,4 km/h (3 Bft)
23.02.2013 00:00 -6,7 C 89 % 1007,8 hPa 0,0 l/m O-NO 0,00 h 0 W/m 12,2 km/h (2 Bft)
23.02.2013 01:00 -6,8 C 89 % 1007,6 hPa 0,0 l/m NO 0,00 h 0 W/m 12,0 km/h (2 Bft)
23.02.2013 02:00 -6,9 C 90 % 1007,6 hPa 0,0 l/m NO 0,00 h 0 W/m 10,1 km/h (2 Bft)
23.02.2013 03:00 -6,8 C 90 % 1007,3 hPa 0,0 l/m O-NO 0,00 h 0 W/m 11,1 km/h (2 Bft)
23.02.2013 04:00 -6,8 C 90 % 1006,9 hPa 0,0 l/m NO 0,00 h 0 W/m 12,0 km/h (2 Bft)
23.02.2013 05:00 -6,8 C 90 % 1006,7 hPa 0,0 l/m NO 0,00 h 0 W/m 9,1 km/h (2 Bft)
23.02.2013 06:00 -6,8 C 91 % 1006,8 hPa 0,0 l/m NO 0,00 h 0 W/m 10,6 km/h (2 Bft)
23.02.2013 07:00 -6,8 C 91 % 1007,0 hPa 0,0 l/m O-NO 0,00 h 9 W/m 9,1 km/h (2 Bft)
23.02.2013 08:00 -6,5 C 91 % 1007,5 hPa 0,0 l/m O-NO 0,00 h 46 W/m 8,0 km/h (2 Bft)
23.02.2013 09:00 -5,8 C 90 % 1007,4 hPa 0,0 l/m NO 0,00 h 134 W/m 9,5 km/h (2 Bft)
23.02.2013 10:00 -4,9 C 85 % 1007,3 hPa 0,0 l/m NO 0,50 h 277 W/m 12,1 km/h (2 Bft)
23.02.2013 11:00 -4,6 C 82 % 1007,7 hPa 0,0 l/m NO 0,00 h 160 W/m 11,0 km/h (2 Bft)
23.02.2013 12:00 -4,6 C 80 % 1008,5 hPa 0,0 l/m O-NO 0,00 h 148 W/m 9,8 km/h (2 Bft)
23.02.2013 13:00 -4,6 C 80 % 1008,3 hPa 0,0 l/m O-NO 0,00 h 134 W/m 7,6 km/h (2 Bft)
23.02.2013 14:00 -4,1 C 78 % 1008,6 hPa 0,0 l/m O 0,00 h 132 W/m 4,0 km/h (1 Bft)
23.02.2013 15:00 -3,9 C 79 % 1008,1 hPa 0,0 l/m NO 0,00 h 90 W/m 6,8 km/h (2 Bft)
23.02.2013 16:00 -3,9 C 78 % 1008,1 hPa 0,0 l/m O-NO 0,00 h 41 W/m 9,2 km/h (2 Bft)
23.02.2013 17:00 -4,2 C 80 % 1008,5 hPa 0,0 l/m NO 0,00 h 12 W/m 4,9 km/h (1 Bft)
23.02.2013 18:00 -4,6 C 83 % 1009,0 hPa 0,0 l/m N 0,00 h 0 W/m 2,3 km/h (1 Bft)
23.02.2013 19:00 -4,8 C 85 % 1009,8 hPa 0,0 l/m N 0,00 h 0 W/m 0,9 km/h (0 Bft)
23.02.2013 20:00 -4,9 C 86 % 1009,7 hPa 0,0 l/m N 0,00 h 0 W/m 2,8 km/h (1 Bft)
23.02.2013 21:00 -5,1 C 87 % 1009,4 hPa 0,0 l/m N 0,00 h 0 W/m 3,2 km/h (1 Bft)
23.02.2013 22:00 -5,2 C 88 % 1009,6 hPa 0,0 l/m N 0,00 h 0 W/m 2,9 km/h (1 Bft)
23.02.2013 23:00 -5,2 C 88 % 1009,3 hPa 0,0 l/m NO 0,00 h 0 W/m 4,0 km/h (1 Bft)
24.02.2013 00:00 -5,2 C 88 % 1009,4 hPa 0,0 l/m NO 0,00 h 0 W/m 5,3 km/h (1 Bft)
24.02.2013 01:00 -5,2 C 88 % 1009,7 hPa 0,0 l/m NO 0,00 h 0 W/m 4,9 km/h (1 Bft)
24.02.2013 02:00 -5,2 C 89 % 1009,8 hPa 0,0 l/m N 0,00 h 0 W/m 2,9 km/h (1 Bft)
24.02.2013 03:00 -5,3 C 90 % 1009,5 hPa 0,0 l/m NO 0,00 h 0 W/m 2,3 km/h (1 Bft)
24.02.2013 04:00 -5,5 C 90 % 1009,8 hPa 0,0 l/m N 0,00 h 0 W/m 1,9 km/h (1 Bft)
24.02.2013 05:00 -5,6 C 91 % 1009,9 hPa 0,0 l/m N 0,00 h 0 W/m 1,5 km/h (1 Bft)
24.02.2013 06:00 -5,8 C 92 % 1010,0 hPa 0,0 l/m N 0,00 h 0 W/m 1,5 km/h (1 Bft)
24.02.2013 07:00 -5,9 C 92 % 1010,4 hPa 0,0 l/m N 0,00 h 16 W/m 0,1 km/h (0 Bft)
24.02.2013 08:00 -5,7 C 93 % 1010,8 hPa 0,8 l/m N 0,00 h 57 W/m 0,9 km/h (0 Bft)
24.02.2013 09:00 -4,8 C 92 % 1010,9 hPa 0,4 l/m NO 0,17 h 163 W/m 4,9 km/h (1 Bft)
24.02.2013 10:00 -3,9 C 88 % 1011,0 hPa 0,2 l/m NO 0,42 h 234 W/m 4,3 km/h (1 Bft)
24.02.2013 11:00 -3,1 C 80 % 1011,2 hPa 0,0 l/m O-NO 0,75 h 424 W/m 4,4 km/h (1 Bft)
24.02.2013 12:00 -2,6 C 77 % 1011,5 hPa 0,0 l/m O-NO 1,00 h 490 W/m 4,7 km/h (1 Bft)
24.02.2013 13:00 -2,4 C 76 % 1011,3 hPa 0,0 l/m O 0,42 h 270 W/m 6,0 km/h (2 Bft)
24.02.2013 14:00 -2,4 C 74 % 1010,9 hPa 0,0 l/m O-NO 0,25 h 254 W/m 3,7 km/h (1 Bft)
24.02.2013 15:00 -2,3 C 74 % 1011,2 hPa 0,0 l/m O 0,00 h 93 W/m 5,7 km/h (1 Bft)
24.02.2013 16:00 -2,6 C 75 % 1011,4 hPa 0,0 l/m S 0,00 h 54 W/m 3,5 km/h (1 Bft)
24.02.2013 17:00 -2,6 C 76 % 1011,7 hPa 0,0 l/m W-SW 0,00 h 18 W/m 3,7 km/h (1 Bft)
24.02.2013 18:00 -3,0 C 80 % 1012,7 hPa 0,0 l/m N-NW 0,00 h 0 W/m 4,7 km/h (1 Bft)
24.02.2013 19:00 -3,4 C 86 % 1013,6 hPa 0,0 l/m N 0,00 h 0 W/m 5,2 km/h (1 Bft)
24.02.2013 20:00 -3,7 C 89 % 1014,1 hPa 0,2 l/m N 0,00 h 0 W/m 2,8 km/h (1 Bft)
24.02.2013 21:00 -4,1 C 91 % 1014,3 hPa 0,0 l/m N 0,00 h 0 W/m 2,0 km/h (1 Bft)
24.02.2013 22:00 -4,3 C 91 % 1014,4 hPa 0,0 l/m N 0,00 h 0 W/m 1,5 km/h (1 Bft)
24.02.2013 23:00 -4,6 C 91 % 1014,7 hPa 0,0 l/m N 0,00 h 0 W/m 0,4 km/h (0 Bft)
Min-Datum _ 19.02.13 19.02.13 23.02.13 - - - - 18.02.13
_ Min-Zeit 05:05 14:50 05:00 - - - - 00:20
Minimum _ -8,1 C 69 % 1006,6 hPa - - - - 0,0 km/h (0 Bft)
Max-Datum _ 19.02.13 22.02.13 18.02.13 19.02.13 - 18.02.13 21.02.13 22.02.13
_ Max-Zeit 14:45 08:05 11:50 19:25 - 13:25 13:05 11:10
Maximum _ 2,8 C 98 % 1019,7 hPa 0,8 l/m - 0,08 h 763 W/m 30,6 km/h
O (5 Bft)
Durchschnitt _ -3,4 C 86 % 1014,1 hPa #3,6 l/m O-NO #12:30 h 145 W/m 9,3 km/h (2 Bft)